createdAt,value
2022-08-07T00:00:09.065Z,68.79
2022-08-07T00:01:12.501Z,68.93
2022-08-07T00:02:37.292Z,68.83
2022-08-07T00:03:10.086Z,68.73
2022-08-07T00:04:09.663Z,68.73
2022-08-07T00:05:09.055Z,68.93
2022-08-07T00:06:09.009Z,69.54
2022-08-07T00:07:09.536Z,69.06
2022-08-07T00:08:08.970Z,68.62
2022-08-07T00:09:16.942Z,69.84
2022-08-07T00:10:27.291Z,69.84
2022-08-07T00:11:09.909Z,69.98
2022-08-07T00:12:08.908Z,70.18
2022-08-07T00:13:23.934Z,69.78
2022-08-07T00:14:09.883Z,69.57
2022-08-07T00:15:08.871Z,69.98
2022-08-07T00:16:08.859Z,69.78
2022-08-07T00:17:09.846Z,69.87
2022-08-07T00:18:08.894Z,69.06
2022-08-07T00:19:09.845Z,69.57
2022-08-07T00:20:09.811Z,69.67
2022-08-07T00:21:57.481Z,69.67
2022-08-07T00:22:09.791Z,69.47
2022-08-07T00:23:08.791Z,69.26
2022-08-07T00:24:08.782Z,69.57
2022-08-07T00:25:15.741Z,69.98
2022-08-07T00:26:18.860Z,69.67
2022-08-07T00:27:09.723Z,69.47
2022-08-07T00:28:08.722Z,69.67
2022-08-07T00:29:08.706Z,69.40
2022-08-07T00:30:26.757Z,69.50
2022-08-07T00:31:12.756Z,69.50
2022-08-07T00:32:09.674Z,69.70
2022-08-07T00:33:08.657Z,70.31
2022-08-07T00:34:09.305Z,70.62
2022-08-07T00:35:08.643Z,69.70
2022-08-07T00:36:08.658Z,69.30
2022-08-07T00:37:08.615Z,69.40
2022-08-07T00:38:08.605Z,70.11
2022-08-07T00:39:08.638Z,70.01
2022-08-07T00:40:10.923Z,71.06
2022-08-07T00:41:10.051Z,70.65
2022-08-07T00:42:09.575Z,71.06
2022-08-07T00:43:09.891Z,71.06
2022-08-07T00:44:08.545Z,71.06
2022-08-07T00:45:08.529Z,71.47
2022-08-07T00:46:09.506Z,71.87
2022-08-07T00:47:15.800Z,71.47
2022-08-07T00:48:10.890Z,71.06
2022-08-07T00:49:08.470Z,70.99
2022-08-07T00:50:21.529Z,71.30
2022-08-07T00:51:09.460Z,72.01
2022-08-07T00:52:08.438Z,71.70
2022-08-07T00:53:09.290Z,71.70
2022-08-07T00:54:08.416Z,72.11
2022-08-07T00:55:10.627Z,72.11
2022-08-07T00:56:13.774Z,72.01
2022-08-07T00:57:09.379Z,72.11
2022-08-07T00:58:08.368Z,72.21
2022-08-07T00:59:08.379Z,72.55
2022-08-07T01:00:08.380Z,72.65
2022-08-07T01:01:08.446Z,73.06
2022-08-07T01:02:14.134Z,73.57
2022-08-07T01:03:09.308Z,73.36
2022-08-07T01:04:08.306Z,73.26
2022-08-07T01:05:19.294Z,73.67
2022-08-07T01:06:09.271Z,73.60
2022-08-07T01:07:08.265Z,73.91
2022-08-07T01:08:09.126Z,73.91
2022-08-07T01:09:08.300Z,74.21
2022-08-07T01:10:11.118Z,74.41
2022-08-07T01:11:23.659Z,74.41
2022-08-07T01:12:30.025Z,74.21
2022-08-07T01:13:09.198Z,74.41
2022-08-07T01:14:08.169Z,74.01
2022-08-07T01:15:11.945Z,74.01
2022-08-07T01:16:09.170Z,74.32
2022-08-07T01:17:08.161Z,74.21
2022-08-07T01:18:09.593Z,74.11
2022-08-07T01:19:18.004Z,74.01
2022-08-07T01:20:09.114Z,73.91
2022-08-07T01:21:22.843Z,73.71
2022-08-07T01:22:09.099Z,74.21
2022-08-07T01:23:12.718Z,74.32
2022-08-07T01:24:08.075Z,74.32
2022-08-07T01:25:54.727Z,74.41
2022-08-07T01:26:12.166Z,74.55
2022-08-07T01:27:19.615Z,74.45
2022-08-07T01:28:09.022Z,74.52
2022-08-07T01:29:08.016Z,74.82
2022-08-07T01:30:07.993Z,74.72
2022-08-07T01:31:07.987Z,74.45
2022-08-07T01:32:12.372Z,74.55
2022-08-07T01:33:07.975Z,74.55
2022-08-07T01:34:07.948Z,74.76
2022-08-07T01:35:07.936Z,74.86
2022-08-07T01:36:07.935Z,74.76
2022-08-07T01:37:10.495Z,74.86
2022-08-07T01:38:07.926Z,74.65
2022-08-07T01:39:09.837Z,74.86
2022-08-07T01:40:14.822Z,75.27
2022-08-07T01:41:08.885Z,75.27
2022-08-07T01:42:38.311Z,75.27
2022-08-07T01:43:08.885Z,75.27
2022-08-07T01:44:07.835Z,74.65
2022-08-07T01:45:10.118Z,75.16
2022-08-07T01:46:12.145Z,74.65
2022-08-07T01:48:17.678Z,73.50
2022-08-07T01:48:17.810Z,73.91
2022-08-07T01:49:08.788Z,73.19
2022-08-07T01:50:07.759Z,73.19
2022-08-07T01:51:24.408Z,73.60
2022-08-07T01:52:08.737Z,73.60
2022-08-07T01:53:08.567Z,73.30
2022-08-07T01:54:11.854Z,73.71
2022-08-07T01:55:08.708Z,73.30
2022-08-07T01:56:08.699Z,72.99
2022-08-07T01:57:08.462Z,72.25
2022-08-07T01:58:29.451Z,72.65
2022-08-07T01:59:08.688Z,72.96
2022-08-07T02:00:12.862Z,72.65
2022-08-07T02:01:09.751Z,72.45
2022-08-07T02:02:10.473Z,72.25
2022-08-07T02:03:18.298Z,71.73
2022-08-07T02:04:08.639Z,71.84
2022-08-07T02:05:07.610Z,71.84
2022-08-07T02:06:09.027Z,72.14
2022-08-07T02:07:08.579Z,72.34
2022-08-07T02:08:07.611Z,72.04
2022-08-07T02:09:07.540Z,72.14
2022-08-07T02:10:07.635Z,72.25
2022-08-07T02:11:08.655Z,72.86
2022-08-07T02:12:07.527Z,72.86
2022-08-07T02:13:07.799Z,72.99
2022-08-07T02:14:07.497Z,72.89
2022-08-07T02:15:07.489Z,72.78
2022-08-07T02:16:07.640Z,73.10
2022-08-07T02:17:07.474Z,72.89
2022-08-07T02:18:07.436Z,72.99
2022-08-07T02:20:04.685Z,73.19
2022-08-07T02:20:17.573Z,72.78
2022-08-07T02:21:08.444Z,72.69
2022-08-07T02:22:08.430Z,72.58
2022-08-07T02:23:07.373Z,72.69
2022-08-07T02:24:07.370Z,72.04
2022-08-07T02:25:13.979Z,71.84
2022-08-07T02:26:31.791Z,71.43
2022-08-07T02:27:08.360Z,71.53
2022-08-07T02:28:07.343Z,71.43
2022-08-07T02:29:07.313Z,71.94
2022-08-07T02:30:08.637Z,71.94
2022-08-07T02:31:18.690Z,72.14
2022-08-07T02:32:10.876Z,72.38
2022-08-07T02:33:09.579Z,72.48
2022-08-07T02:34:11.525Z,72.78
2022-08-07T02:35:09.077Z,72.28
2022-08-07T02:36:30.488Z,72.89
2022-08-07T02:37:08.412Z,72.48
2022-08-07T02:38:07.225Z,72.28
2022-08-07T02:39:16.684Z,72.28
2022-08-07T02:40:29.829Z,72.38
2022-08-07T02:41:08.268Z,72.58
2022-08-07T02:42:09.905Z,72.78
2022-08-07T02:43:08.295Z,72.89
2022-08-07T02:44:07.147Z,73.30
2022-08-07T02:45:07.624Z,73.64
2022-08-07T02:46:08.120Z,73.33
2022-08-07T02:47:07.116Z,73.64
2022-08-07T02:48:10.002Z,73.54
2022-08-07T02:49:07.099Z,73.94
2022-08-07T02:50:07.097Z,74.25
2022-08-07T02:51:07.057Z,74.55
2022-08-07T02:52:08.039Z,74.90
2022-08-07T02:53:10.987Z,74.35
2022-08-07T02:54:07.027Z,74.25
2022-08-07T02:55:27.642Z,74.04
2022-08-07T02:56:08.139Z,74.25
2022-08-07T02:57:07.998Z,74.15
2022-08-07T02:58:06.989Z,74.25
2022-08-07T02:59:06.959Z,74.25
2022-08-07T03:00:11.112Z,74.38
2022-08-07T03:01:15.932Z,74.49
2022-08-07T03:02:08.037Z,74.15
2022-08-07T03:03:06.910Z,74.25
2022-08-07T03:04:12.632Z,74.15
2022-08-07T03:05:07.912Z,74.49
2022-08-07T03:06:06.924Z,74.18
2022-08-07T03:07:10.596Z,74.08
2022-08-07T03:08:10.326Z,74.04
2022-08-07T03:09:06.841Z,73.64
2022-08-07T03:10:06.843Z,73.64
2022-08-07T03:11:06.867Z,73.54
2022-08-07T03:12:06.826Z,73.54
2022-08-07T03:13:06.832Z,73.33
2022-08-07T03:14:06.833Z,73.54
2022-08-07T03:15:07.880Z,73.33
2022-08-07T03:16:06.762Z,73.74
2022-08-07T03:17:08.764Z,73.84
2022-08-07T03:18:06.767Z,73.74
2022-08-07T03:19:06.762Z,73.54
2022-08-07T03:20:06.733Z,73.54
2022-08-07T03:21:08.909Z,73.54
2022-08-07T03:22:06.728Z,73.54
2022-08-07T03:23:06.677Z,73.33
2022-08-07T03:24:18.462Z,73.23
2022-08-07T03:25:07.664Z,73.23
2022-08-07T03:26:06.665Z,73.23
2022-08-07T03:27:09.063Z,73.23
2022-08-07T03:28:09.563Z,73.02
2022-08-07T03:29:11.006Z,72.58
2022-08-07T03:30:06.634Z,72.38
2022-08-07T03:31:06.654Z,72.28
2022-08-07T03:32:06.585Z,72.08
2022-08-07T03:33:07.945Z,72.17
2022-08-07T03:34:06.565Z,72.08
2022-08-07T03:35:17.674Z,72.41
2022-08-07T03:36:07.576Z,72.72
2022-08-07T03:37:12.415Z,72.82
2022-08-07T03:38:07.506Z,72.92
2022-08-07T03:39:06.527Z,73.13
2022-08-07T03:40:14.972Z,73.33
2022-08-07T03:41:07.497Z,73.54
2022-08-07T03:42:06.495Z,73.74
2022-08-07T03:43:13.838Z,73.64
2022-08-07T03:44:07.438Z,73.97
2022-08-07T03:45:06.438Z,74.38
2022-08-07T03:46:10.445Z,74.69
2022-08-07T03:47:13.029Z,74.83
2022-08-07T03:48:10.108Z,74.93
2022-08-07T03:49:06.400Z,74.62
2022-08-07T03:50:06.376Z,74.73
2022-08-07T03:51:06.377Z,75.03
2022-08-07T03:52:06.360Z,75.13
2022-08-07T03:53:06.838Z,75.23
2022-08-07T03:54:35.322Z,75.03
2022-08-07T03:55:07.952Z,75.13
2022-08-07T03:56:06.302Z,75.34
2022-08-07T03:57:07.399Z,75.64
2022-08-07T03:58:33.471Z,75.23
2022-08-07T03:59:09.748Z,75.03
2022-08-07T04:00:06.285Z,74.49
2022-08-07T04:01:07.523Z,74.38
2022-08-07T04:02:06.232Z,74.38
2022-08-07T04:03:06.243Z,74.62
2022-08-07T04:04:06.218Z,74.49
2022-08-07T04:05:06.261Z,74.38
2022-08-07T04:06:06.193Z,74.73
2022-08-07T04:07:07.654Z,74.93
2022-08-07T04:08:07.162Z,74.93
2022-08-07T04:09:06.156Z,74.73
2022-08-07T04:10:06.151Z,74.83
2022-08-07T04:12:23.384Z,74.83
2022-08-07T04:12:23.691Z,74.73
2022-08-07T04:13:07.121Z,74.93
2022-08-07T04:14:09.945Z,74.93
2022-08-07T04:15:07.101Z,74.62
2022-08-07T04:16:06.083Z,74.73
2022-08-07T04:17:20.270Z,74.28
2022-08-07T04:18:57.907Z,74.28
2022-08-07T04:19:12.805Z,74.58
2022-08-07T04:20:07.029Z,74.73
2022-08-07T04:21:07.268Z,75.13
2022-08-07T04:22:13.295Z,75.13
2022-08-07T04:23:07.016Z,75.23
2022-08-07T04:24:07.471Z,75.34
2022-08-07T04:25:08.784Z,75.13
2022-08-07T04:26:06.958Z,75.03
2022-08-07T04:27:05.946Z,75.03
2022-08-07T04:28:06.945Z,75.54
2022-08-07T04:29:05.939Z,75.34
2022-08-07T04:30:11.935Z,75.23
2022-08-07T04:31:07.511Z,74.93
2022-08-07T04:32:10.214Z,74.62
2022-08-07T04:33:07.472Z,74.58
2022-08-07T04:34:05.866Z,74.38
2022-08-07T04:35:07.044Z,74.18
2022-08-07T04:36:06.646Z,74.08
2022-08-07T04:37:07.983Z,73.77
2022-08-07T04:38:07.528Z,73.67
2022-08-07T04:39:05.839Z,74.08
2022-08-07T04:40:05.800Z,74.18
2022-08-07T04:41:05.798Z,74.08
2022-08-07T04:42:05.775Z,73.97
2022-08-07T04:43:05.772Z,73.97
2022-08-07T04:44:12.364Z,74.08
2022-08-07T04:45:08.128Z,74.08
2022-08-07T04:46:05.731Z,74.18
2022-08-07T04:47:08.529Z,74.28
2022-08-07T04:48:10.331Z,74.28
2022-08-07T04:49:07.468Z,73.97
2022-08-07T04:50:06.670Z,74.18
2022-08-07T04:51:05.658Z,73.54
2022-08-07T04:52:05.653Z,73.64
2022-08-07T04:53:05.655Z,73.54
2022-08-07T04:54:06.849Z,73.54
2022-08-07T04:55:15.472Z,73.43
2022-08-07T04:58:11.332Z,72.69
2022-08-07T04:58:13.257Z,72.82
2022-08-07T04:58:23.669Z,73.23
2022-08-07T05:00:07.956Z,72.78
2022-08-07T05:00:11.956Z,72.82
2022-08-07T05:01:06.599Z,72.69
2022-08-07T05:02:06.540Z,72.89
2022-08-07T05:03:31.119Z,72.82
2022-08-07T05:04:08.861Z,73.10
2022-08-07T05:05:11.589Z,72.99
2022-08-07T05:06:19.619Z,72.89
2022-08-07T05:07:19.516Z,72.69
2022-08-07T05:08:06.514Z,72.28
2022-08-07T05:09:06.229Z,72.08
2022-08-07T05:10:05.440Z,71.94
2022-08-07T05:11:05.430Z,71.73
2022-08-07T05:12:05.435Z,72.14
2022-08-07T05:14:44.621Z,72.14
2022-08-07T05:14:53.974Z,72.34
2022-08-07T05:15:06.392Z,72.45
2022-08-07T05:16:05.381Z,72.45
2022-08-07T05:17:05.907Z,72.45
2022-08-07T05:18:09.281Z,72.45
2022-08-07T05:19:05.348Z,72.55
2022-08-07T05:20:09.681Z,72.25
2022-08-07T05:21:05.316Z,72.14
2022-08-07T05:22:05.305Z,72.14
2022-08-07T05:23:05.288Z,72.01
2022-08-07T05:24:06.297Z,72.01
2022-08-07T05:25:08.588Z,72.01
2022-08-07T05:26:11.802Z,72.11
2022-08-07T05:27:06.255Z,72.11
2022-08-07T05:28:19.969Z,71.91
2022-08-07T05:29:06.227Z,71.91
2022-08-07T05:30:05.255Z,72.21
2022-08-07T05:31:05.204Z,72.21
2022-08-07T05:32:05.208Z,72.21
2022-08-07T05:33:05.182Z,71.36
2022-08-07T05:34:10.737Z,71.57
2022-08-07T05:35:06.241Z,71.26
2022-08-07T05:36:05.146Z,71.06
2022-08-07T05:37:05.857Z,71.16
2022-08-07T05:38:08.882Z,70.82
2022-08-07T05:39:16.004Z,70.72
2022-08-07T05:40:18.538Z,70.92
2022-08-07T05:41:14.431Z,70.92
2022-08-07T05:42:08.852Z,71.03
2022-08-07T05:43:06.059Z,70.82
2022-08-07T05:44:11.989Z,70.82
2022-08-07T05:45:25.996Z,70.72
2022-08-07T05:46:06.040Z,70.72
2022-08-07T05:47:18.248Z,70.59
2022-08-07T05:48:06.267Z,70.79
2022-08-07T05:49:11.710Z,70.99
2022-08-07T05:50:05.981Z,70.48
2022-08-07T05:51:04.959Z,70.38
2022-08-07T05:52:04.989Z,70.55
2022-08-07T05:53:04.956Z,70.65
2022-08-07T05:54:12.100Z,70.35
2022-08-07T05:55:10.884Z,70.25
2022-08-07T05:56:06.809Z,70.62
2022-08-07T05:57:04.932Z,70.21
2022-08-07T05:58:04.931Z,70.01
2022-08-07T05:59:04.880Z,69.71
2022-08-07T06:00:04.870Z,69.71
2022-08-07T06:01:05.996Z,69.60
2022-08-07T06:02:05.903Z,69.00
2022-08-07T06:03:04.913Z,69.47
2022-08-07T06:04:04.840Z,69.24
2022-08-07T06:05:04.826Z,68.43
2022-08-07T06:06:04.796Z,68.63
2022-08-07T06:07:04.805Z,68.09
2022-08-07T06:08:14.461Z,67.48
2022-08-07T06:09:05.812Z,67.25
2022-08-07T06:10:06.102Z,65.93
2022-08-07T06:11:05.733Z,65.53
2022-08-07T06:12:04.713Z,64.69
2022-08-07T06:13:04.726Z,65.12
2022-08-07T06:14:12.466Z,64.92
2022-08-07T06:15:06.057Z,64.82
2022-08-07T06:16:04.665Z,64.61
2022-08-07T06:17:07.278Z,64.92
2022-08-07T06:18:04.649Z,64.69
2022-08-07T06:19:06.561Z,64.41
2022-08-07T06:20:04.814Z,64.69
2022-08-07T06:22:15.240Z,64.35
2022-08-07T06:22:15.241Z,63.75
2022-08-07T06:23:46.435Z,63.51
2022-08-07T06:24:45.763Z,62.81
2022-08-07T06:25:05.698Z,62.90
2022-08-07T06:26:04.577Z,63.21
2022-08-07T06:27:04.557Z,63.01
2022-08-07T06:28:04.744Z,62.40
2022-08-07T06:29:06.505Z,62.81
2022-08-07T06:30:04.506Z,62.63
2022-08-07T06:31:04.503Z,63.64
2022-08-07T06:32:04.587Z,63.34
2022-08-07T06:33:04.493Z,63.92
2022-08-07T06:34:04.476Z,63.18
2022-08-07T06:35:10.565Z,62.27
2022-08-07T06:36:13.381Z,62.07
2022-08-07T06:37:05.486Z,61.96
2022-08-07T06:38:04.423Z,62.14
2022-08-07T06:40:17.162Z,62.04
2022-08-07T06:40:17.215Z,61.73
2022-08-07T06:41:06.951Z,62.37
2022-08-07T06:42:04.480Z,62.64
2022-08-07T06:43:04.389Z,62.64
2022-08-07T06:44:06.633Z,62.24
2022-08-07T06:45:05.350Z,62.14
2022-08-07T06:46:04.346Z,62.01
2022-08-07T06:47:12.531Z,61.91
2022-08-07T06:48:05.372Z,62.08
2022-08-07T06:49:04.370Z,61.37
2022-08-07T06:50:04.366Z,60.87
2022-08-07T06:51:08.032Z,61.27
2022-08-07T06:52:07.492Z,61.40
2022-08-07T06:53:05.251Z,61.37
2022-08-07T06:55:28.725Z,61.47
2022-08-07T06:55:32.877Z,61.44
2022-08-07T06:56:07.462Z,61.14
2022-08-07T06:57:05.218Z,60.74
2022-08-07T06:58:04.462Z,60.81
2022-08-07T07:00:11.648Z,60.53
2022-08-07T07:00:14.349Z,60.94
2022-08-07T07:01:05.173Z,60.97
2022-08-07T07:02:04.202Z,61.37
2022-08-07T07:03:08.646Z,61.14
2022-08-07T07:04:32.314Z,60.81
2022-08-07T07:05:05.108Z,60.71
2022-08-07T07:06:06.304Z,60.58
2022-08-07T07:07:10.819Z,60.00
2022-08-07T07:08:07.370Z,60.41
2022-08-07T07:09:05.046Z,60.84
2022-08-07T07:10:05.011Z,61.52
2022-08-07T07:11:14.060Z,60.91
2022-08-07T07:12:07.748Z,60.08
2022-08-07T07:13:05.041Z,59.95
2022-08-07T07:14:03.989Z,59.64
2022-08-07T07:15:04.222Z,59.52
2022-08-07T07:16:04.999Z,60.72
2022-08-07T07:17:03.966Z,58.61
2022-08-07T07:18:05.542Z,59.08
2022-08-07T07:19:11.519Z,58.31
2022-08-07T07:20:04.930Z,58.74
2022-08-07T07:21:04.084Z,59.55
2022-08-07T07:22:12.508Z,59.55
2022-08-07T07:24:06.388Z,59.64
2022-08-07T07:24:09.661Z,59.34
2022-08-07T07:26:30.844Z,59.52
2022-08-07T07:26:35.579Z,58.88
2022-08-07T07:27:04.850Z,57.55
2022-08-07T07:28:07.877Z,57.32
2022-08-07T07:29:39.390Z,56.89
2022-08-07T07:30:09.986Z,56.62
2022-08-07T07:31:04.812Z,56.41
2022-08-07T07:32:03.813Z,56.51
2022-08-07T07:33:03.782Z,56.71
2022-08-07T07:34:03.761Z,56.79
2022-08-07T07:35:04.074Z,55.99
2022-08-07T07:36:04.722Z,55.76
2022-08-07T07:37:14.722Z,55.35
2022-08-07T07:38:05.960Z,55.16
2022-08-07T07:39:03.776Z,55.35
2022-08-07T07:40:03.760Z,55.46
2022-08-07T07:41:04.701Z,55.28
2022-08-07T07:42:13.020Z,55.88
2022-08-07T07:43:15.430Z,55.88
2022-08-07T07:44:17.826Z,55.91
2022-08-07T07:45:04.639Z,56.71
2022-08-07T07:46:36.972Z,57.02
2022-08-07T07:47:13.976Z,56.69
2022-08-07T07:48:04.676Z,55.99
2022-08-07T07:49:09.117Z,56.29
2022-08-07T07:50:34.081Z,56.46
2022-08-07T07:51:07.682Z,55.73
2022-08-07T07:52:03.595Z,54.83
2022-08-07T07:53:03.552Z,54.60
2022-08-07T07:54:03.568Z,54.50
2022-08-07T07:55:03.623Z,54.63
2022-08-07T07:56:03.508Z,54.53
2022-08-07T07:57:03.497Z,54.83
2022-08-07T07:58:03.499Z,55.03
2022-08-07T07:59:03.486Z,54.85
2022-08-07T08:00:03.457Z,55.46
2022-08-07T08:02:03.603Z,55.63
2022-08-07T08:02:10.291Z,54.80
2022-08-07T08:03:05.561Z,54.30
2022-08-07T08:04:10.549Z,54.10
2022-08-07T08:05:04.402Z,53.67
2022-08-07T08:06:03.388Z,53.37
2022-08-07T08:07:08.019Z,53.25
2022-08-07T08:08:03.553Z,53.25
2022-08-07T08:09:03.353Z,52.84
2022-08-07T08:10:04.908Z,53.25
2022-08-07T08:11:03.750Z,53.02
2022-08-07T08:12:04.990Z,52.29
2022-08-07T08:13:03.356Z,51.69
2022-08-07T08:14:03.301Z,51.39
2022-08-07T08:15:06.786Z,51.19
2022-08-07T08:16:03.274Z,51.27
2022-08-07T08:17:55.481Z,50.96
2022-08-07T08:18:17.227Z,50.94
2022-08-07T08:19:17.459Z,48.32
2022-08-07T08:20:20.006Z,49.02
2022-08-07T08:21:04.221Z,47.99
2022-08-07T08:22:03.914Z,47.99
2022-08-07T08:23:03.211Z,47.27
2022-08-07T08:24:03.212Z,46.30
2022-08-07T08:25:09.586Z,48.29
2022-08-07T08:26:06.947Z,48.47
2022-08-07T08:27:05.910Z,48.37
2022-08-07T08:28:04.309Z,47.45
2022-08-07T08:29:03.188Z,46.45
2022-08-07T08:30:03.115Z,46.27
2022-08-07T08:31:03.107Z,46.57
2022-08-07T08:32:18.662Z,47.05
2022-08-07T08:33:04.274Z,46.65
2022-08-07T08:34:03.075Z,46.85
2022-08-07T08:35:03.077Z,46.27
2022-08-07T08:36:03.054Z,47.30
2022-08-07T08:37:03.029Z,47.09
2022-08-07T08:38:03.530Z,47.60
2022-08-07T08:39:03.110Z,49.17
2022-08-07T08:40:03.079Z,47.05
2022-08-07T08:41:03.032Z,48.43
2022-08-07T08:42:02.979Z,46.80
2022-08-07T08:43:02.959Z,46.19
2022-08-07T08:44:02.948Z,45.61
2022-08-07T08:45:04.162Z,46.43
2022-08-07T08:46:02.940Z,45.83
2022-08-07T08:47:02.935Z,45.35
2022-08-07T08:48:02.911Z,45.77
2022-08-07T08:49:02.902Z,46.57
2022-08-07T08:50:05.647Z,46.35
2022-08-07T08:51:03.399Z,46.50
2022-08-07T08:52:14.382Z,45.29
2022-08-07T08:53:03.857Z,45.18
2022-08-07T08:54:02.831Z,45.86
2022-08-07T08:55:04.603Z,45.54
2022-08-07T08:56:02.932Z,44.53
2022-08-07T08:57:02.837Z,43.82
2022-08-07T08:58:02.782Z,42.55
2022-08-07T08:59:08.693Z,44.12
2022-08-07T09:00:03.763Z,43.25
2022-08-07T09:01:14.618Z,43.63
2022-08-07T09:02:03.832Z,42.63
2022-08-07T09:03:07.544Z,42.93
2022-08-07T09:04:02.734Z,43.21
2022-08-07T09:05:02.752Z,41.53
2022-08-07T09:06:02.716Z,42.33
2022-08-07T09:07:03.250Z,43.23
2022-08-07T09:08:02.689Z,41.42
2022-08-07T09:09:02.681Z,41.22
2022-08-07T09:10:03.705Z,41.89
2022-08-07T09:11:02.649Z,42.29
2022-08-07T09:12:30.778Z,41.31
2022-08-07T09:13:03.726Z,42.11
2022-08-07T09:14:02.604Z,41.61
2022-08-07T09:16:20.620Z,41.50
2022-08-07T09:16:23.531Z,42.11
2022-08-07T09:17:03.579Z,41.89
2022-08-07T09:18:08.703Z,40.90
2022-08-07T09:19:07.171Z,41.61
2022-08-07T09:20:34.885Z,41.91
2022-08-07T09:21:03.535Z,41.20
2022-08-07T09:22:22.671Z,41.60
2022-08-07T09:24:30.717Z,42.29
2022-08-07T09:24:35.030Z,41.20
2022-08-07T09:25:07.043Z,41.77
2022-08-07T09:26:03.460Z,40.10
2022-08-07T09:27:09.134Z,40.50
2022-08-07T09:28:03.441Z,40.92
2022-08-07T09:30:03.368Z,42.61
2022-08-07T09:30:08.271Z,41.22
2022-08-07T09:31:03.424Z,40.90
2022-08-07T09:32:02.409Z,41.89
2022-08-07T09:33:05.526Z,41.20
2022-08-07T09:34:03.371Z,40.90
2022-08-07T09:35:04.559Z,40.70
2022-08-07T09:36:06.222Z,41.08
2022-08-07T09:37:02.354Z,40.50
2022-08-07T09:38:02.365Z,40.58
2022-08-07T09:39:06.230Z,39.69
2022-08-07T09:40:03.344Z,40.00
2022-08-07T09:41:03.536Z,41.00
2022-08-07T09:42:06.049Z,41.20
2022-08-07T09:43:03.277Z,40.02
2022-08-07T09:44:06.652Z,41.06
2022-08-07T09:46:28.746Z,41.74
2022-08-07T09:47:49.622Z,41.85
2022-08-07T09:47:51.832Z,40.95
2022-08-07T09:48:08.835Z,41.16
2022-08-07T09:50:02.397Z,41.16
2022-08-07T09:50:18.861Z,42.53
2022-08-07T09:51:03.182Z,40.84
2022-08-07T09:52:10.680Z,41.52
2022-08-07T09:53:03.159Z,40.60
2022-08-07T09:54:02.828Z,40.88
2022-08-07T09:55:29.073Z,39.89
2022-08-07T09:57:12.903Z,40.54
2022-08-07T09:58:20.024Z,41.12
2022-08-07T09:59:14.522Z,39.23
2022-08-07T10:00:14.380Z,38.64
2022-08-07T10:01:14.894Z,39.83
2022-08-07T10:02:13.523Z,38.95
2022-08-07T10:04:03.606Z,40.34
2022-08-07T10:04:14.211Z,39.84
2022-08-07T10:05:13.856Z,39.76
2022-08-07T10:06:12.505Z,39.78
2022-08-07T10:07:26.186Z,40.38
2022-08-07T10:08:13.427Z,42.75
2022-08-07T10:09:13.379Z,40.20
2022-08-07T10:10:21.754Z,40.78
2022-08-07T10:11:16.666Z,37.39
2022-08-07T10:12:19.661Z,36.81
2022-08-07T10:13:29.718Z,37.72
2022-08-07T10:14:13.344Z,38.73
2022-08-07T10:15:15.444Z,37.94
2022-08-07T10:16:13.313Z,37.54
2022-08-07T10:17:14.277Z,37.54
2022-08-07T10:18:12.340Z,37.45
2022-08-07T10:19:12.273Z,38.93
2022-08-07T10:20:13.011Z,37.92
2022-08-07T10:21:19.593Z,38.12
2022-08-07T10:22:16.333Z,39.39
2022-08-07T10:23:12.241Z,37.79
2022-08-07T10:24:15.006Z,37.72
2022-08-07T10:25:13.202Z,38.00
2022-08-07T10:26:12.460Z,37.41
2022-08-07T10:27:12.182Z,37.79
2022-08-07T10:28:12.535Z,38.07
2022-08-07T10:29:12.152Z,36.08
2022-08-07T10:30:12.996Z,36.88
2022-08-07T10:31:12.133Z,36.60
2022-08-07T10:32:37.050Z,36.71
2022-08-07T10:33:15.020Z,36.00
2022-08-07T10:34:18.248Z,37.01
2022-08-07T10:35:15.041Z,37.11
2022-08-07T10:36:13.086Z,36.83
2022-08-07T10:37:12.735Z,37.15
2022-08-07T10:38:35.241Z,37.74
2022-08-07T10:39:13.106Z,37.92
2022-08-07T10:40:12.648Z,37.64
2022-08-07T10:41:12.032Z,38.83
2022-08-07T10:42:21.081Z,37.43
2022-08-07T10:43:13.044Z,39.11
2022-08-07T10:44:11.994Z,38.24
2022-08-07T10:45:11.974Z,38.81
2022-08-07T10:46:11.980Z,37.81
2022-08-07T10:47:14.138Z,37.67
2022-08-07T10:48:12.001Z,36.76
2022-08-07T10:49:11.927Z,36.16
2022-08-07T10:50:12.023Z,35.71
2022-08-07T10:51:16.284Z,36.75
2022-08-07T10:52:13.958Z,37.26
2022-08-07T10:53:11.894Z,37.08
2022-08-07T10:54:11.928Z,37.28
2022-08-07T10:55:27.100Z,37.26
2022-08-07T10:56:20.914Z,36.65
2022-08-07T10:57:12.851Z,36.35
2022-08-07T10:58:11.845Z,37.03
2022-08-07T10:59:13.641Z,36.63
2022-08-07T11:00:36.452Z,37.30
2022-08-07T11:01:12.843Z,36.68
2022-08-07T11:02:12.467Z,36.00
2022-08-07T11:03:12.942Z,35.71
2022-08-07T11:04:31.484Z,36.73
2022-08-07T11:05:12.782Z,36.94
2022-08-07T11:06:11.754Z,37.84
2022-08-07T11:07:15.012Z,38.02
2022-08-07T11:08:12.753Z,38.00
2022-08-07T11:09:11.723Z,37.17
2022-08-07T11:10:12.722Z,36.98
2022-08-07T11:11:11.700Z,35.97
2022-08-07T11:12:11.687Z,35.57
2022-08-07T11:14:42.016Z,36.10
2022-08-07T11:14:44.639Z,36.79
2022-08-07T11:15:17.515Z,36.60
2022-08-07T11:16:12.698Z,36.11
2022-08-07T11:17:11.614Z,36.41
2022-08-07T11:18:12.572Z,37.11
2022-08-07T11:19:11.607Z,37.88
2022-08-07T11:20:11.588Z,36.58
2022-08-07T11:21:11.582Z,36.46
2022-08-07T11:22:26.449Z,36.18
2022-08-07T11:23:12.558Z,36.08
2022-08-07T11:24:12.538Z,37.57
2022-08-07T11:25:11.528Z,35.86
2022-08-07T11:26:13.095Z,36.74
2022-08-07T11:27:13.449Z,35.35
2022-08-07T11:28:15.460Z,35.17
2022-08-07T11:29:13.070Z,36.36
2022-08-07T11:30:18.770Z,36.64
2022-08-07T11:31:12.470Z,35.83
2022-08-07T11:32:11.458Z,34.76
2022-08-07T11:33:14.964Z,34.86
2022-08-07T11:34:11.442Z,36.24
2022-08-07T11:35:12.452Z,35.83
2022-08-07T11:36:11.421Z,34.17
2022-08-07T11:37:11.580Z,34.38
2022-08-07T11:38:13.035Z,35.77
2022-08-07T11:39:14.576Z,34.97
2022-08-07T11:40:12.440Z,34.27
2022-08-07T11:41:22.229Z,34.86
2022-08-07T11:42:18.792Z,35.16
2022-08-07T11:43:15.453Z,34.27
2022-08-07T11:44:14.274Z,35.77
2022-08-07T11:45:12.450Z,36.64
2022-08-07T11:46:11.304Z,34.97
2022-08-07T11:47:11.286Z,35.75
2022-08-07T11:48:18.177Z,34.55
2022-08-07T11:49:50.716Z,34.88
2022-08-07T11:50:31.653Z,34.99
2022-08-07T11:51:12.247Z,35.21
2022-08-07T11:52:12.231Z,35.32
2022-08-07T11:53:11.231Z,35.64
2022-08-07T11:54:11.219Z,36.13
2022-08-07T11:55:18.609Z,35.22
2022-08-07T11:56:27.636Z,36.20
2022-08-07T11:57:14.127Z,35.58
2022-08-07T11:58:13.176Z,34.89
2022-08-07T11:59:22.070Z,36.10
2022-08-07T12:00:19.040Z,35.98
2022-08-07T12:01:12.140Z,35.67
2022-08-07T12:02:20.631Z,35.85
2022-08-07T12:03:44.448Z,35.24
2022-08-07T12:04:12.103Z,35.34
2022-08-07T12:05:15.327Z,34.84
2022-08-07T12:06:39.200Z,36.11
2022-08-07T12:07:18.855Z,34.31
2022-08-07T12:08:25.852Z,34.30
2022-08-07T12:09:16.140Z,34.30
2022-08-07T12:10:12.564Z,35.00
2022-08-07T12:11:21.263Z,34.31
2022-08-07T12:12:12.355Z,34.69
2022-08-07T12:13:11.557Z,35.19
2022-08-07T12:14:11.995Z,33.80
2022-08-07T12:15:17.185Z,33.90
2022-08-07T12:16:11.969Z,34.22
2022-08-07T12:17:20.316Z,34.63
2022-08-07T12:18:11.999Z,34.33
2022-08-07T12:19:10.935Z,37.00
2022-08-07T12:20:30.398Z,35.82
2022-08-07T12:21:14.938Z,34.63
2022-08-07T12:22:38.844Z,33.85
2022-08-07T12:23:14.476Z,35.55
2022-08-07T12:24:12.543Z,34.94
2022-08-07T12:26:00.853Z,34.55
2022-08-07T12:26:28.561Z,35.32
2022-08-07T12:27:13.211Z,35.52
2022-08-07T12:28:10.849Z,34.33
2022-08-07T12:29:11.321Z,34.92
2022-08-07T12:30:10.803Z,35.02
2022-08-07T12:31:10.810Z,33.84
2022-08-07T12:32:13.217Z,34.03
2022-08-07T12:33:18.712Z,35.11
2022-08-07T12:34:11.787Z,33.54
2022-08-07T12:35:11.920Z,34.12
2022-08-07T12:36:10.994Z,34.22
2022-08-07T12:37:17.023Z,34.30
2022-08-07T12:38:30.632Z,33.11
2022-08-07T12:39:42.645Z,32.93
2022-08-07T12:40:29.708Z,33.42
2022-08-07T12:41:11.748Z,32.55
2022-08-07T12:42:13.091Z,32.96
2022-08-07T12:43:10.679Z,32.37
2022-08-07T12:44:13.189Z,32.27
2022-08-07T12:45:11.674Z,33.95
2022-08-07T12:46:10.638Z,34.74
2022-08-07T12:47:11.624Z,35.91
2022-08-07T12:48:13.140Z,32.93
2022-08-07T12:49:25.367Z,32.64
2022-08-07T12:50:39.126Z,33.84
2022-08-07T12:51:12.834Z,33.33
2022-08-07T12:52:14.101Z,32.15
2022-08-07T12:53:17.435Z,33.07